Latest Weather Observations for Terrey Hills

IDN60801

Issued at 7:19 pm EDT Monday 26 January 2015 (issued every 30 minutes, with the page automatically refreshed every 10 minutes)

About weather observations | Map of weather stations | Latest weather observations for NSW | Other Formats
Station Details ID: 066059 Name: TERREY HILLS AWS Lat: -33.69 Lon: 151.23 Height: 199.0 m
Data from the previous 72 hours. | See also: Recent months at Terrey Hills
Date/Time
EDT
Temp
°C
App
Temp
°C
Dew
Point
Rel
Hum
%
Delta-T
°C
Wind Press
QNH
hPa
Press
MSL
hPa
Rain
since 9 am
mm
Dir
 
Spd
km/h
Gust
km/h
Spd
kts
Gust
kts
26/07:00pm 17.9 19.3 17.9 100 0.0 ESE 7 13 4 7 - - 7.2
26/06:30pm 17.7 18.7 17.7 100 0.0 SE 9 19 5 10 - - 6.6
26/06:00pm 17.5 18.4 17.5 100 0.0 S 9 17 5 9 - - 5.0
26/05:30pm 17.5 18.0 17.5 100 0.0 SSE 11 20 6 11 - - 4.6
26/05:00pm 17.7 18.7 17.7 100 0.0 SSE 9 15 5 8 - - 4.0
26/04:30pm 17.7 18.6 17.5 99 0.1 S 9 17 5 9 - - 2.8
26/04:00pm 17.7 18.6 17.5 99 0.1 S 9 15 5 8 - - 2.6
26/03:30pm 17.9 18.9 17.7 99 0.1 SE 9 19 5 10 - - 2.4
26/03:00pm 17.8 18.7 17.6 99 0.1 SSE 9 20 5 11 - - 2.0
26/02:30pm 18.0 19.0 17.8 99 0.1 SSE 9 17 5 9 - - 1.6
26/02:00pm 17.8 19.1 17.5 98 0.2 SSE 7 17 4 9 - - 1.4
26/01:30pm 18.3 18.9 17.8 97 0.3 S 11 19 6 10 - - 0.4
26/01:00pm 18.6 19.7 18.1 97 0.3 SSE 9 17 5 9 - - 0.4
26/12:30pm 18.3 18.9 17.8 97 0.3 S 11 20 6 11 - - 0.4
26/12:00pm 18.5 19.9 17.9 96 0.4 SSW 7 15 4 8 - - 0.0
26/11:30am 18.5 19.5 17.7 95 0.5 SSW 9 17 5 9 - - 0.0
26/11:00am 18.6 20.2 17.8 95 0.5 SSW 6 9 3 5 - - 0.0
26/10:30am 18.7 19.7 17.7 94 0.6 S 9 15 5 8 - - 0.0
26/10:00am 18.7 19.3 17.7 94 0.6 SSW 11 19 6 10 - - 0.0
26/09:30am 19.1 20.5 17.8 92 0.8 S 7 17 4 9 - - 0.0
26/09:00am 18.5 19.1 17.7 95 0.5 S 11 22 6 12 - - 0.4
26/08:30am 18.5 19.0 17.5 94 0.6 S 11 26 6 14 - - 0.2
26/08:00am 19.3 20.2 17.6 90 1.0 S 9 20 5 11 - - 0.2
26/07:30am 19.2 20.5 17.5 90 1.0 SSW 7 13 4 7 - - 0.2
26/07:00am 19.1 19.9 17.4 90 1.0 SSW 9 15 5 8 - - 0.2
26/06:30am 19.0 20.5 17.7 92 0.8 SSW 6 11 3 6 - - 0.2
26/06:00am 19.1 20.0 17.6 91 0.9 S 9 17 5 9 - - 0.2
26/05:30am 18.7 19.3 17.7 94 0.6 S 11 19 6 10 - - 0.2
26/05:00am 18.6 18.9 17.8 95 0.5 SSW 13 20 7 11 - - 0.2
26/04:30am 19.0 19.6 17.8 93 0.7 SSW 11 19 6 10 - - 0.2
26/04:00am 19.3 20.1 18.1 93 0.7 SW 11 17 6 9 - - 0.2
26/03:30am 19.5 21.1 18.3 93 0.7 SW 7 15 4 8 - - 0.2
26/03:00am 19.9 21.0 18.0 89 1.2 S 9 20 5 11 - - 0.2
26/02:30am 20.3 21.8 18.1 87 1.4 SSW 7 15 4 8 - - 0.2
26/02:00am 20.6 21.7 18.0 85 1.6 S 9 17 5 9 - - 0.2
26/01:30am 20.8 22.0 18.2 85 1.6 SSE 9 20 5 11 - - 0.2
26/01:00am 20.8 22.1 18.4 86 1.5 S 9 20 5 11 - - 0.2
26/12:30am 20.9 22.4 18.8 88 1.3 SSE 9 17 5 9 - - 0.2
26/12:00am 20.9 21.3 19.0 89 1.2 S 15 24 8 13 - - 0.2
 
Date/Time
EDT
Temp
°C
App
Temp
°C
Dew
Point
Rel
Hum
%
Delta-T
°C
Wind Press
QNH
hPa
Press
MSL
hPa
Rain
since 9 am
mm
Dir
 
Spd
km/h
Gust
km/h
Spd
kts
Gust
kts
25/11:30pm 20.9 20.9 19.0 89 1.2 S 17 30 9 16 - - 0.2
25/11:00pm 21.0 20.7 19.1 89 1.2 S 19 33 10 18 - - 0.2
25/10:30pm 21.2 20.8 19.3 89 1.2 S 20 35 11 19 - - 0.2
25/10:00pm 21.3 21.4 19.2 88 1.3 S 17 30 9 16 - - 0.2
25/09:30pm 21.6 21.3 19.5 88 1.3 S 20 39 11 21 - - 0.2
25/09:00pm 21.9 22.8 20.0 89 1.2 S 15 33 8 18 - - 0.2
25/08:30pm 22.2 22.5 19.7 86 1.6 S 17 35 9 19 - - 0.2
25/08:00pm 22.9 23.2 19.7 82 2.1 S 17 32 9 17 - - 0.2
25/07:30pm 26.9 28.0 17.1 55 6.2 ESE 7 11 4 6 - - 0.2
25/07:00pm 28.0 29.0 16.9 51 7.0 E 7 9 4 5 - - 0.2
25/06:30pm 28.4 29.7 17.6 52 6.9 ENE 7 11 4 6 - - 0.2
25/06:00pm 28.0 29.6 17.8 54 6.5 SE 6 9 3 5 - - 0.2
25/05:30pm 28.8 30.5 18.6 54 6.6 ENE 7 11 4 6 - - 0.2
25/05:00pm 29.0 30.9 19.0 54 6.5 ENE 7 13 4 7 - - 0.2
25/04:30pm 27.8 28.7 17.6 53 6.5 ENE 9 15 5 8 - - 0.2
25/04:00pm 29.1 30.8 18.5 52 6.9 NE 7 17 4 9 - - 0.2
25/03:30pm 29.0 29.8 17.2 49 7.5 ESE 9 17 5 9 - - 0.2
25/03:00pm 31.6 32.3 18.9 47 8.3 NE 13 24 7 13 - - 0.2
25/02:30pm 31.3 32.5 19.0 48 8.1 NE 11 26 6 14 - - 0.2
25/02:00pm 31.9 34.2 19.5 47 8.2 E 6 11 3 6 - - 0.2
25/01:30pm 32.9 34.2 17.5 39 9.9 WSW 7 19 4 10 - - 0.2
25/01:00pm 32.5 34.6 19.4 46 8.7 W 7 15 4 8 - - 0.2
25/12:30pm 31.3 32.3 18.6 46 8.3 WNW 11 20 6 11 - - 0.2
25/12:00pm 30.6 31.3 18.0 47 8.1 W 11 20 6 11 - - 0.2
25/11:30am 30.0 30.4 18.1 49 7.7 W 13 20 7 11 - - 0.2
25/11:00am 29.5 31.1 19.2 54 6.7 WSW 9 19 5 10 - - 0.2
25/10:30am 28.6 31.1 19.8 59 5.8 W 6 11 3 6 - - 0.2
25/10:00am 27.5 30.3 19.6 62 5.2 WNW 4 7 2 4 - - 0.0
25/09:30am 26.4 29.0 20.0 68 4.2 NW 6 7 3 4 - - 0.0
25/09:00am 24.8 27.7 20.7 78 2.7 NW 6 9 3 5 - - 0.0
25/08:30am 23.7 26.8 21.0 85 1.8 WNW 6 11 3 6 - - 0.0
25/08:00am 21.5 24.4 20.7 95 0.5 NW 6 9 3 5 - - 0.0
25/07:30am 21.2 24.0 20.5 96 0.5 NW 6 11 3 6 - - 0.0
25/07:00am 21.0 23.3 20.7 98 0.2 NNW 9 17 5 9 - - 0.0
25/06:30am 20.7 23.3 20.4 98 0.2 NNW 7 13 4 7 - - 0.0
25/06:00am 20.8 23.5 20.3 97 0.3 NNW 6 9 3 5 - - 0.0
25/05:30am 20.8 23.5 20.3 97 0.3 NNW 6 11 3 6 - - 0.0
25/05:00am 20.5 23.5 20.0 97 0.3 NW 4 7 2 4 - - 0.0
25/04:30am 20.2 23.3 19.5 96 0.4 WNW 2 6 1 3 - - 0.0
25/04:00am 20.5 23.5 20.0 97 0.3 WNW 4 6 2 3 - - 0.0
25/03:30am 20.7 23.4 20.2 97 0.3 WNW 6 9 3 5 - - 0.0
25/03:00am 21.1 23.3 20.4 96 0.5 W 9 13 5 7 - - 0.0
25/02:30am 21.7 24.6 21.0 96 0.5 WNW 7 11 4 6 - - 0.0
25/02:00am 21.8 24.7 21.0 95 0.5 NW 7 15 4 8 - - 0.0
25/01:30am 22.1 25.2 21.4 96 0.5 NNW 7 13 4 7 - - 0.0
25/01:00am 22.1 24.4 21.4 96 0.5 N 11 20 6 11 - - 0.0
25/12:30am 21.8 24.2 21.5 98 0.2 NE 11 19 6 10 - - 0.0
25/12:00am 22.0 25.0 21.2 95 0.5 NE 7 11 4 6 - - 0.0
 
Date/Time
EDT
Temp
°C
App
Temp
°C
Dew
Point
Rel
Hum
%
Delta-T
°C
Wind Press
QNH
hPa
Press
MSL
hPa
Rain
since 9 am
mm
Dir
 
Spd
km/h
Gust
km/h
Spd
kts
Gust
kts
24/11:30pm 22.1 25.6 21.1 94 0.7 NE 4 9 2 5 - - 0.0
24/11:00pm 22.6 27.0 21.4 93 0.8 CALM 0 0 0 0 - - 0.0
24/10:30pm 22.8 27.1 21.1 90 1.1 CALM 0 2 0 1 - - 0.0
24/10:00pm 23.0 26.0 20.9 88 1.4 WNW 6 11 3 6 - - 0.0
24/09:30pm 23.1 26.4 20.8 87 1.5 NNE 4 7 2 4 - - 0.0
24/09:00pm 23.1 26.1 20.8 87 1.5 N 6 9 3 5 - - 0.0
24/08:30pm 23.2 25.9 20.7 86 1.6 N 7 15 4 8 - - 0.0
24/08:00pm 23.3 25.3 20.8 86 1.6 NE 11 24 6 13 - - 0.0
24/07:30pm 23.3 25.6 20.6 85 1.8 NE 9 20 5 11 - - 0.0
24/07:00pm 23.4 24.8 20.3 83 2.0 NE 13 26 7 14 - - 0.0
24/06:30pm 23.8 25.0 20.7 83 2.0 NE 15 26 8 14 - - 0.0
24/06:00pm 24.1 25.4 20.8 82 2.2 NE 15 24 8 13 - - 0.0
24/05:30pm 24.6 25.9 20.1 76 2.9 NE 13 30 7 16 - - 0.0
24/05:00pm 25.7 26.9 19.8 70 3.8 NE 13 26 7 14 - - 0.0
24/04:30pm 26.4 26.8 19.8 67 4.3 NE 17 28 9 15 - - 0.0
24/04:00pm 26.9 27.4 19.3 63 4.9 NE 15 30 8 16 - - 0.0
24/03:30pm 27.4 27.7 19.5 62 5.2 NE 17 32 9 17 - - 0.0
24/03:00pm 27.4 28.1 18.9 59 5.5 NNE 13 22 7 12 - - 0.0
24/02:30pm 27.7 28.9 19.8 62 5.2 NNE 13 26 7 14 - - 0.0
24/02:00pm 27.6 28.9 19.4 61 5.3 NE 11 22 6 12 - - 0.0
24/01:30pm 27.7 28.7 19.5 61 5.4 NE 13 22 7 12 - - 0.0
24/01:00pm 28.0 28.3 19.5 60 5.6 ENE 17 32 9 17 - - 0.0
24/12:30pm 28.6 30.0 20.3 60 5.5 NE 13 24 7 13 - - 0.0
24/12:00pm 28.0 30.3 20.6 64 4.9 NNE 9 15 5 8 - - 0.0
24/11:30am 28.4 30.7 21.4 66 4.7 ENE 11 19 6 10 - - 0.0
24/11:00am 27.4 29.5 21.0 68 4.3 ENE 11 20 6 11 - - 0.0
24/10:30am 27.0 29.8 21.5 72 3.7 ENE 9 19 5 10 - - 0.0
24/10:00am 26.5 29.7 21.7 75 3.2 NNE 7 19 4 10 - - 0.0
24/09:30am 25.0 27.5 21.1 79 2.6 N 9 15 5 8 - - 0.0
24/09:00am 24.8 27.8 21.3 81 2.3 NNE 7 11 4 6 - - 0.0
24/08:30am 23.6 26.4 20.9 85 1.8 N 7 11 4 6 - - 0.0
24/08:00am 22.6 25.4 20.9 90 1.1 N 7 9 4 5 - - 0.0
24/07:30am 22.1 24.9 20.9 93 0.8 N 7 15 4 8 - - 0.0
24/07:00am 21.4 24.4 20.9 97 0.3 NNE 6 11 3 6 - - 0.0
24/06:30am 20.6 23.7 20.3 98 0.2 NNE 4 9 2 5 - - 0.0
24/06:00am 20.5 23.2 20.2 98 0.2 ENE 6 9 3 5 - - 0.0
24/05:30am 20.8 23.5 20.3 97 0.3 NNE 6 13 3 7 - - 0.0
24/05:00am 21.0 23.2 20.5 97 0.3 NNE 9 19 5 10 - - 0.0
24/04:30am 21.0 23.3 20.7 98 0.2 NNE 9 17 5 9 - - 0.0
24/04:00am 21.0 22.9 20.5 97 0.3 NNE 11 17 6 9 - - 0.0
24/03:30am 21.1 23.8 20.6 97 0.3 NNE 7 13 4 7 - - 0.0
24/03:00am 21.2 23.5 20.7 97 0.3 NNE 9 13 5 7 - - 0.0
24/02:30am 21.2 24.0 20.5 96 0.5 NE 6 11 3 6 - - 0.0
24/02:00am 21.4 23.7 20.7 96 0.5 NNE 9 17 5 9 - - 0.0
24/01:30am 21.5 24.3 20.8 96 0.5 NNE 7 13 4 7 - - 0.0
24/01:00am 21.8 24.3 21.0 95 0.5 NNE 9 15 5 8 - - 0.0
24/12:30am 21.9 24.7 20.9 94 0.7 NNE 7 13 4 7 - - 0.0
24/12:00am 22.2 24.6 20.8 92 0.9 NNE 9 15 5 8 - - 0.0
 
Date/Time
EDT
Temp
°C
App
Temp
°C
Dew
Point
Rel
Hum
%
Delta-T
°C
Wind Press
QNH
hPa
Press
MSL
hPa
Rain
since 9 am
mm
Dir
 
Spd
km/h
Gust
km/h
Spd
kts
Gust
kts
23/11:30pm 22.4 25.3 21.0 92 0.9 NNE 7 11 4 6 - - 0.0
23/11:00pm 22.5 25.4 21.0 91 1.0 NE 7 13 4 7 - - 0.0
23/10:30pm 22.6 25.0 20.9 90 1.1 NE 9 17 5 9 - - 0.0
23/10:00pm 22.8 25.2 20.9 89 1.2 NNE 9 13 5 7 - - 0.0
23/09:30pm 22.7 24.3 20.8 89 1.2 NNE 13 24 7 13 - - 0.0
23/09:00pm 22.6 25.0 20.9 90 1.1 NNE 9 17 5 9 - - 0.0
23/08:30pm 22.7 24.8 21.0 90 1.1 NE 11 22 6 12 - - 0.0
23/08:00pm 22.8 24.9 20.9 89 1.2 NNE 11 20 6 11 - - 0.0
23/07:30pm 23.1 25.1 20.8 87 1.5 NE 11 19 6 10 - - 0.0

Other Formats:

Comma delimited format used in spreadsheet applications
http://www.bom.gov.au/fwo/IDN60801/IDN60801.94759.axf

JavaScript Object Notation format (JSON) in row-major order
http://www.bom.gov.au/fwo/IDN60801/IDN60801.94759.json